sensor_id;sensor_type;location;lat;lon;timestamp;P1;durP1;ratioP1;P2;durP2;ratioP2
75628;SDS011;64213;46.452;16.994;2024-02-21T00:02:59;12.13;;;4.17;;
75628;SDS011;64213;46.452;16.994;2024-02-21T00:06:04;13.02;;;4.72;;
75628;SDS011;64213;46.452;16.994;2024-02-21T00:09:06;13.70;;;5.72;;
75628;SDS011;64213;46.452;16.994;2024-02-21T00:12:08;15.55;;;6.22;;
75628;SDS011;64213;46.452;16.994;2024-02-21T00:15:11;15.03;;;6.50;;
75628;SDS011;64213;46.452;16.994;2024-02-21T00:18:13;18.53;;;6.47;;
75628;SDS011;64213;46.452;16.994;2024-02-21T00:21:16;14.63;;;5.22;;
75628;SDS011;64213;46.452;16.994;2024-02-21T00:24:20;12.77;;;4.78;;
75628;SDS011;64213;46.452;16.994;2024-02-21T00:27:23;10.95;;;3.70;;
75628;SDS011;64213;46.452;16.994;2024-02-21T00:30:25;11.67;;;4.13;;
75628;SDS011;64213;46.452;16.994;2024-02-21T00:33:28;12.20;;;4.03;;
75628;SDS011;64213;46.452;16.994;2024-02-21T00:36:30;10.95;;;3.50;;
75628;SDS011;64213;46.452;16.994;2024-02-21T00:39:33;11.57;;;4.37;;
75628;SDS011;64213;46.452;16.994;2024-02-21T00:42:36;15.93;;;4.22;;
75628;SDS011;64213;46.452;16.994;2024-02-21T00:45:38;12.33;;;3.87;;
75628;SDS011;64213;46.452;16.994;2024-02-21T00:48:40;11.30;;;3.77;;
75628;SDS011;64213;46.452;16.994;2024-02-21T00:51:43;10.20;;;3.60;;
75628;SDS011;64213;46.452;16.994;2024-02-21T00:54:46;12.13;;;3.30;;
75628;SDS011;64213;46.452;16.994;2024-02-21T00:57:55;10.98;;;3.70;;
75628;SDS011;64213;46.452;16.994;2024-02-21T01:00:57;11.83;;;3.97;;
75628;SDS011;64213;46.452;16.994;2024-02-21T01:04:00;12.27;;;3.07;;
75628;SDS011;64213;46.452;16.994;2024-02-21T01:07:02;13.27;;;3.83;;
75628;SDS011;64213;46.452;16.994;2024-02-21T01:10:05;12.43;;;2.97;;
75628;SDS011;64213;46.452;16.994;2024-02-21T01:13:08;9.40;;;3.12;;
75628;SDS011;64213;46.452;16.994;2024-02-21T01:16:11;12.10;;;3.47;;
75628;SDS011;64213;46.452;16.994;2024-02-21T01:19:13;10.43;;;3.37;;
75628;SDS011;64213;46.452;16.994;2024-02-21T01:22:16;11.85;;;3.20;;
75628;SDS011;64213;46.452;16.994;2024-02-21T01:25:20;10.60;;;3.00;;
75628;SDS011;64213;46.452;16.994;2024-02-21T01:28:22;10.20;;;3.70;;
75628;SDS011;64213;46.452;16.994;2024-02-21T01:31:24;10.87;;;3.43;;
75628;SDS011;64213;46.452;16.994;2024-02-21T01:34:27;9.40;;;3.03;;
75628;SDS011;64213;46.452;16.994;2024-02-21T01:37:34;8.60;;;2.87;;
75628;SDS011;64213;46.452;16.994;2024-02-21T01:40:36;9.73;;;2.70;;
75628;SDS011;64213;46.452;16.994;2024-02-21T01:43:39;10.02;;;3.40;;
75628;SDS011;64213;46.452;16.994;2024-02-21T01:46:42;13.13;;;3.23;;
75628;SDS011;64213;46.452;16.994;2024-02-21T01:49:45;13.53;;;4.67;;
75628;SDS011;64213;46.452;16.994;2024-02-21T01:52:47;10.93;;;4.43;;
75628;SDS011;64213;46.452;16.994;2024-02-21T01:55:52;10.68;;;4.00;;
75628;SDS011;64213;46.452;16.994;2024-02-21T01:58:55;11.75;;;3.20;;
75628;SDS011;64213;46.452;16.994;2024-02-21T02:01:58;9.47;;;3.70;;
75628;SDS011;64213;46.452;16.994;2024-02-21T02:05:02;10.23;;;3.90;;
75628;SDS011;64213;46.452;16.994;2024-02-21T02:08:04;9.15;;;3.53;;
75628;SDS011;64213;46.452;16.994;2024-02-21T02:11:08;10.73;;;3.90;;
75628;SDS011;64213;46.452;16.994;2024-02-21T02:14:11;10.07;;;3.50;;
75628;SDS011;64213;46.452;16.994;2024-02-21T02:17:13;9.60;;;3.17;;
75628;SDS011;64213;46.452;16.994;2024-02-21T02:20:16;12.77;;;3.17;;
75628;SDS011;64213;46.452;16.994;2024-02-21T02:23:21;8.43;;;2.90;;
75628;SDS011;64213;46.452;16.994;2024-02-21T02:26:23;11.32;;;2.97;;
75628;SDS011;64213;46.452;16.994;2024-02-21T02:29:26;9.85;;;2.35;;
75628;SDS011;64213;46.452;16.994;2024-02-21T02:32:28;8.73;;;2.77;;
75628;SDS011;64213;46.452;16.994;2024-02-21T02:39:29;9.30;;;2.37;;
75628;SDS011;64213;46.452;16.994;2024-02-21T02:46:32;9.15;;;2.67;;
75628;SDS011;64213;46.452;16.994;2024-02-21T02:49:34;8.90;;;3.07;;
75628;SDS011;64213;46.452;16.994;2024-02-21T02:52:37;9.10;;;2.20;;
75628;SDS011;64213;46.452;16.994;2024-02-21T02:55:40;8.35;;;2.60;;
75628;SDS011;64213;46.452;16.994;2024-02-21T02:58:43;8.35;;;2.40;;
75628;SDS011;64213;46.452;16.994;2024-02-21T03:01:46;10.38;;;2.90;;
75628;SDS011;64213;46.452;16.994;2024-02-21T03:04:48;10.13;;;3.00;;
75628;SDS011;64213;46.452;16.994;2024-02-21T03:07:51;10.43;;;3.20;;
75628;SDS011;64213;46.452;16.994;2024-02-21T03:10:53;10.50;;;3.30;;
75628;SDS011;64213;46.452;16.994;2024-02-21T03:13:56;10.35;;;3.20;;
75628;SDS011;64213;46.452;16.994;2024-02-21T03:16:59;10.48;;;3.25;;
75628;SDS011;64213;46.452;16.994;2024-02-21T03:20:02;10.90;;;3.00;;
75628;SDS011;64213;46.452;16.994;2024-02-21T03:23:07;10.80;;;4.60;;
75628;SDS011;64213;46.452;16.994;2024-02-21T03:26:09;11.40;;;4.47;;
75628;SDS011;64213;46.452;16.994;2024-02-21T03:29:12;10.00;;;3.30;;
75628;SDS011;64213;46.452;16.994;2024-02-21T03:36:24;9.23;;;2.93;;
75628;SDS011;64213;46.452;16.994;2024-02-21T03:39:26;9.90;;;3.47;;
75628;SDS011;64213;46.452;16.994;2024-02-21T03:42:29;10.40;;;3.67;;
75628;SDS011;64213;46.452;16.994;2024-02-21T03:45:33;10.88;;;3.58;;
75628;SDS011;64213;46.452;16.994;2024-02-21T03:48:36;10.27;;;3.62;;
75628;SDS011;64213;46.452;16.994;2024-02-21T03:51:39;9.10;;;3.20;;
75628;SDS011;64213;46.452;16.994;2024-02-21T03:54:41;12.03;;;3.30;;
75628;SDS011;64213;46.452;16.994;2024-02-21T03:57:43;15.18;;;3.20;;
75628;SDS011;64213;46.452;16.994;2024-02-21T04:00:46;12.88;;;4.18;;
75628;SDS011;64213;46.452;16.994;2024-02-21T04:03:49;12.88;;;3.62;;
75628;SDS011;64213;46.452;16.994;2024-02-21T04:06:52;8.63;;;2.23;;
75628;SDS011;64213;46.452;16.994;2024-02-21T04:09:54;13.40;;;4.10;;
75628;SDS011;64213;46.452;16.994;2024-02-21T04:12:58;13.73;;;4.18;;
75628;SDS011;64213;46.452;16.994;2024-02-21T04:16:00;12.88;;;4.75;;
75628;SDS011;64213;46.452;16.994;2024-02-21T04:19:03;10.40;;;3.67;;
75628;SDS011;64213;46.452;16.994;2024-02-21T04:22:06;10.60;;;3.73;;
75628;SDS011;64213;46.452;16.994;2024-02-21T04:25:09;12.57;;;4.23;;
75628;SDS011;64213;46.452;16.994;2024-02-21T04:28:21;10.32;;;2.80;;
75628;SDS011;64213;46.452;16.994;2024-02-21T04:31:25;10.45;;;2.67;;
75628;SDS011;64213;46.452;16.994;2024-02-21T04:34:29;9.98;;;3.12;;
75628;SDS011;64213;46.452;16.994;2024-02-21T04:37:32;8.07;;;2.07;;
75628;SDS011;64213;46.452;16.994;2024-02-21T04:40:35;8.53;;;2.47;;
75628;SDS011;64213;46.452;16.994;2024-02-21T04:43:41;10.77;;;3.72;;
75628;SDS011;64213;46.452;16.994;2024-02-21T04:46:45;9.40;;;3.15;;
75628;SDS011;64213;46.452;16.994;2024-02-21T04:49:47;9.30;;;4.45;;
75628;SDS011;64213;46.452;16.994;2024-02-21T04:52:51;11.43;;;3.57;;
75628;SDS011;64213;46.452;16.994;2024-02-21T04:55:53;10.03;;;3.90;;
75628;SDS011;64213;46.452;16.994;2024-02-21T04:58:56;10.15;;;3.80;;
75628;SDS011;64213;46.452;16.994;2024-02-21T05:01:59;10.32;;;4.20;;
75628;SDS011;64213;46.452;16.994;2024-02-21T05:05:01;12.05;;;3.80;;
75628;SDS011;64213;46.452;16.994;2024-02-21T05:08:04;10.27;;;3.90;;
75628;SDS011;64213;46.452;16.994;2024-02-21T05:11:07;10.30;;;3.77;;
75628;SDS011;64213;46.452;16.994;2024-02-21T05:14:10;10.68;;;3.75;;
75628;SDS011;64213;46.452;16.994;2024-02-21T05:17:13;11.55;;;4.15;;
75628;SDS011;64213;46.452;16.994;2024-02-21T05:20:15;11.43;;;4.60;;
75628;SDS011;64213;46.452;16.994;2024-02-21T05:23:18;12.53;;;4.23;;
75628;SDS011;64213;46.452;16.994;2024-02-21T05:26:23;14.07;;;3.97;;
75628;SDS011;64213;46.452;16.994;2024-02-21T05:29:27;9.65;;;3.65;;
75628;SDS011;64213;46.452;16.994;2024-02-21T05:32:29;11.68;;;3.85;;
75628;SDS011;64213;46.452;16.994;2024-02-21T05:35:32;11.52;;;3.35;;
75628;SDS011;64213;46.452;16.994;2024-02-21T05:38:36;9.23;;;3.00;;
75628;SDS011;64213;46.452;16.994;2024-02-21T05:41:39;8.60;;;2.83;;
75628;SDS011;64213;46.452;16.994;2024-02-21T05:44:41;13.32;;;3.40;;
75628;SDS011;64213;46.452;16.994;2024-02-21T05:51:43;9.65;;;3.58;;
75628;SDS011;64213;46.452;16.994;2024-02-21T05:54:45;12.03;;;4.03;;
75628;SDS011;64213;46.452;16.994;2024-02-21T05:57:53;11.77;;;4.33;;
75628;SDS011;64213;46.452;16.994;2024-02-21T06:00:57;11.48;;;3.72;;
75628;SDS011;64213;46.452;16.994;2024-02-21T06:04:00;10.98;;;3.42;;
75628;SDS011;64213;46.452;16.994;2024-02-21T06:07:02;11.88;;;3.30;;
75628;SDS011;64213;46.452;16.994;2024-02-21T06:10:06;12.77;;;4.73;;
75628;SDS011;64213;46.452;16.994;2024-02-21T06:13:09;15.87;;;5.90;;
75628;SDS011;64213;46.452;16.994;2024-02-21T06:16:12;15.32;;;6.37;;
75628;SDS011;64213;46.452;16.994;2024-02-21T06:19:14;15.82;;;6.45;;
75628;SDS011;64213;46.452;16.994;2024-02-21T06:22:17;13.05;;;5.37;;
75628;SDS011;64213;46.452;16.994;2024-02-21T06:25:20;12.53;;;5.07;;
75628;SDS011;64213;46.452;16.994;2024-02-21T06:28:22;13.57;;;5.40;;
75628;SDS011;64213;46.452;16.994;2024-02-21T06:31:25;13.18;;;5.25;;
75628;SDS011;64213;46.452;16.994;2024-02-21T06:34:27;14.82;;;5.15;;
75628;SDS011;64213;46.452;16.994;2024-02-21T06:37:35;15.30;;;6.62;;
75628;SDS011;64213;46.452;16.994;2024-02-21T06:40:38;15.73;;;6.80;;
75628;SDS011;64213;46.452;16.994;2024-02-21T06:43:42;18.37;;;7.00;;
75628;SDS011;64213;46.452;16.994;2024-02-21T06:46:45;19.17;;;6.95;;
75628;SDS011;64213;46.452;16.994;2024-02-21T06:49:50;15.35;;;6.43;;
75628;SDS011;64213;46.452;16.994;2024-02-21T06:52:53;16.25;;;6.15;;
75628;SDS011;64213;46.452;16.994;2024-02-21T06:55:55;16.57;;;6.93;;
75628;SDS011;64213;46.452;16.994;2024-02-21T06:58:58;21.70;;;6.00;;
75628;SDS011;64213;46.452;16.994;2024-02-21T07:02:01;13.20;;;6.05;;
75628;SDS011;64213;46.452;16.994;2024-02-21T07:05:03;15.30;;;6.37;;
75628;SDS011;64213;46.452;16.994;2024-02-21T07:08:07;14.32;;;6.18;;
75628;SDS011;64213;46.452;16.994;2024-02-21T07:11:10;18.10;;;6.33;;
75628;SDS011;64213;46.452;16.994;2024-02-21T07:14:16;18.97;;;8.33;;
75628;SDS011;64213;46.452;16.994;2024-02-21T07:17:18;17.62;;;6.97;;
75628;SDS011;64213;46.452;16.994;2024-02-21T07:20:20;15.85;;;6.28;;
75628;SDS011;64213;46.452;16.994;2024-02-21T07:23:23;16.65;;;7.53;;
75628;SDS011;64213;46.452;16.994;2024-02-21T07:26:26;21.43;;;8.13;;
75628;SDS011;64213;46.452;16.994;2024-02-21T07:29:28;20.27;;;7.43;;
75628;SDS011;64213;46.452;16.994;2024-02-21T07:32:31;20.58;;;8.48;;
75628;SDS011;64213;46.452;16.994;2024-02-21T07:35:33;16.37;;;7.22;;
75628;SDS011;64213;46.452;16.994;2024-02-21T07:38:36;18.23;;;7.20;;
75628;SDS011;64213;46.452;16.994;2024-02-21T07:41:38;17.77;;;6.40;;
75628;SDS011;64213;46.452;16.994;2024-02-21T07:44:43;18.77;;;7.80;;
75628;SDS011;64213;46.452;16.994;2024-02-21T07:47:45;18.55;;;7.80;;
75628;SDS011;64213;46.452;16.994;2024-02-21T07:50:48;15.43;;;6.57;;
75628;SDS011;64213;46.452;16.994;2024-02-21T07:53:51;16.52;;;6.62;;
75628;SDS011;64213;46.452;16.994;2024-02-21T07:56:53;17.43;;;6.97;;
75628;SDS011;64213;46.452;16.994;2024-02-21T07:59:55;10.87;;;4.20;;
75628;SDS011;64213;46.452;16.994;2024-02-21T08:02:58;13.27;;;4.87;;
75628;SDS011;64213;46.452;16.994;2024-02-21T08:06:02;16.83;;;5.72;;
75628;SDS011;64213;46.452;16.994;2024-02-21T08:09:05;13.57;;;6.00;;
75628;SDS011;64213;46.452;16.994;2024-02-21T08:12:07;15.63;;;6.13;;
75628;SDS011;64213;46.452;16.994;2024-02-21T08:15:10;10.50;;;4.93;;
75628;SDS011;64213;46.452;16.994;2024-02-21T08:18:14;14.18;;;4.95;;
75628;SDS011;64213;46.452;16.994;2024-02-21T08:21:17;14.82;;;5.80;;
75628;SDS011;64213;46.452;16.994;2024-02-21T08:24:19;15.85;;;4.70;;
75628;SDS011;64213;46.452;16.994;2024-02-21T08:27:22;11.50;;;4.53;;
75628;SDS011;64213;46.452;16.994;2024-02-21T08:30:24;12.50;;;4.73;;
75628;SDS011;64213;46.452;16.994;2024-02-21T08:33:27;12.40;;;3.95;;
75628;SDS011;64213;46.452;16.994;2024-02-21T08:36:32;11.77;;;4.03;;
75628;SDS011;64213;46.452;16.994;2024-02-21T08:39:35;10.30;;;3.62;;
75628;SDS011;64213;46.452;16.994;2024-02-21T08:42:39;10.93;;;3.63;;
75628;SDS011;64213;46.452;16.994;2024-02-21T08:45:42;11.13;;;3.77;;
75628;SDS011;64213;46.452;16.994;2024-02-21T08:48:44;11.93;;;4.10;;
75628;SDS011;64213;46.452;16.994;2024-02-21T08:51:50;11.02;;;3.42;;
75628;SDS011;64213;46.452;16.994;2024-02-21T08:54:52;10.95;;;4.05;;
75628;SDS011;64213;46.452;16.994;2024-02-21T08:57:55;11.20;;;4.23;;
75628;SDS011;64213;46.452;16.994;2024-02-21T09:00:58;14.53;;;4.70;;
75628;SDS011;64213;46.452;16.994;2024-02-21T09:04:01;12.18;;;4.47;;
75628;SDS011;64213;46.452;16.994;2024-02-21T09:07:05;13.98;;;4.00;;
75628;SDS011;64213;46.452;16.994;2024-02-21T09:10:08;13.05;;;4.32;;
75628;SDS011;64213;46.452;16.994;2024-02-21T09:13:10;10.67;;;3.93;;
75628;SDS011;64213;46.452;16.994;2024-02-21T09:16:13;12.17;;;4.83;;
75628;SDS011;64213;46.452;16.994;2024-02-21T09:19:15;12.95;;;5.25;;
75628;SDS011;64213;46.452;16.994;2024-02-21T09:22:18;11.85;;;4.80;;
75628;SDS011;64213;46.452;16.994;2024-02-21T09:25:20;10.98;;;4.30;;
75628;SDS011;64213;46.452;16.994;2024-02-21T09:28:23;12.30;;;4.57;;
75628;SDS011;64213;46.452;16.994;2024-02-21T09:31:26;12.80;;;3.87;;
75628;SDS011;64213;46.452;16.994;2024-02-21T09:34:29;10.43;;;3.85;;
75628;SDS011;64213;46.452;16.994;2024-02-21T09:37:32;12.50;;;5.00;;
75628;SDS011;64213;46.452;16.994;2024-02-21T09:40:35;12.18;;;4.70;;
75628;SDS011;64213;46.452;16.994;2024-02-21T09:43:40;14.27;;;4.93;;
75628;SDS011;64213;46.452;16.994;2024-02-21T09:47:03;10.27;;;4.07;;
75628;SDS011;64213;46.452;16.994;2024-02-21T09:50:08;11.73;;;4.25;;
75628;SDS011;64213;46.452;16.994;2024-02-21T09:53:12;12.13;;;4.22;;
75628;SDS011;64213;46.452;16.994;2024-02-21T09:56:18;13.07;;;4.75;;
75628;SDS011;64213;46.452;16.994;2024-02-21T09:59:22;7.57;;;2.77;;
75628;SDS011;64213;46.452;16.994;2024-02-21T10:02:26;13.37;;;4.37;;
75628;SDS011;64213;46.452;16.994;2024-02-21T10:05:28;8.30;;;2.90;;
75628;SDS011;64213;46.452;16.994;2024-02-21T10:08:31;12.23;;;4.60;;
75628;SDS011;64213;46.452;16.994;2024-02-21T10:11:33;9.52;;;3.10;;
75628;SDS011;64213;46.452;16.994;2024-02-21T10:14:38;11.83;;;3.50;;
75628;SDS011;64213;46.452;16.994;2024-02-21T10:17:41;9.60;;;3.60;;
75628;SDS011;64213;46.452;16.994;2024-02-21T10:20:44;9.52;;;3.12;;
75628;SDS011;64213;46.452;16.994;2024-02-21T10:23:50;10.38;;;3.03;;
75628;SDS011;64213;46.452;16.994;2024-02-21T10:27:02;10.55;;;3.10;;
75628;SDS011;64213;46.452;16.994;2024-02-21T10:30:14;13.43;;;3.17;;
75628;SDS011;64213;46.452;16.994;2024-02-21T10:33:17;9.33;;;2.33;;
75628;SDS011;64213;46.452;16.994;2024-02-21T10:36:25;9.63;;;3.20;;
75628;SDS011;64213;46.452;16.994;2024-02-21T10:39:28;9.70;;;2.70;;
75628;SDS011;64213;46.452;16.994;2024-02-21T10:42:34;9.38;;;2.45;;
75628;SDS011;64213;46.452;16.994;2024-02-21T10:45:40;8.77;;;2.47;;
75628;SDS011;64213;46.452;16.994;2024-02-21T10:48:44;7.73;;;2.10;;
75628;SDS011;64213;46.452;16.994;2024-02-21T10:51:47;6.93;;;1.90;;
75628;SDS011;64213;46.452;16.994;2024-02-21T10:54:53;6.53;;;2.00;;
75628;SDS011;64213;46.452;16.994;2024-02-21T10:57:59;8.15;;;2.10;;
75628;SDS011;64213;46.452;16.994;2024-02-21T11:01:02;8.35;;;1.90;;
75628;SDS011;64213;46.452;16.994;2024-02-21T11:04:06;9.03;;;1.83;;
75628;SDS011;64213;46.452;16.994;2024-02-21T11:07:10;8.88;;;2.10;;
75628;SDS011;64213;46.452;16.994;2024-02-21T11:10:23;8.13;;;1.98;;
75628;SDS011;64213;46.452;16.994;2024-02-21T11:13:30;8.13;;;2.05;;
75628;SDS011;64213;46.452;16.994;2024-02-21T11:16:35;6.90;;;2.25;;
75628;SDS011;64213;46.452;16.994;2024-02-21T11:19:42;6.63;;;2.10;;
75628;SDS011;64213;46.452;16.994;2024-02-21T11:22:45;7.30;;;2.20;;
75628;SDS011;64213;46.452;16.994;2024-02-21T11:25:50;8.07;;;2.37;;
75628;SDS011;64213;46.452;16.994;2024-02-21T11:28:56;6.80;;;1.90;;
75628;SDS011;64213;46.452;16.994;2024-02-21T11:32:09;8.23;;;2.20;;
75628;SDS011;64213;46.452;16.994;2024-02-21T11:35:19;7.73;;;2.30;;
75628;SDS011;64213;46.452;16.994;2024-02-21T11:38:22;8.55;;;2.40;;
75628;SDS011;64213;46.452;16.994;2024-02-21T11:41:25;7.87;;;2.70;;
75628;SDS011;64213;46.452;16.994;2024-02-21T11:44:27;8.30;;;2.17;;
75628;SDS011;64213;46.452;16.994;2024-02-21T11:47:29;7.53;;;1.67;;
75628;SDS011;64213;46.452;16.994;2024-02-21T11:50:33;9.70;;;1.27;;
75628;SDS011;64213;46.452;16.994;2024-02-21T11:53:37;6.70;;;1.60;;
75628;SDS011;64213;46.452;16.994;2024-02-21T11:56:51;6.43;;;1.50;;
75628;SDS011;64213;46.452;16.994;2024-02-21T11:59:53;7.97;;;1.60;;
75628;SDS011;64213;46.452;16.994;2024-02-21T12:03:01;6.30;;;1.30;;
75628;SDS011;64213;46.452;16.994;2024-02-21T12:06:06;6.43;;;1.73;;
75628;SDS011;64213;46.452;16.994;2024-02-21T12:09:09;4.70;;;0.95;;
75628;SDS011;64213;46.452;16.994;2024-02-21T12:12:12;5.22;;;1.10;;
75628;SDS011;64213;46.452;16.994;2024-02-21T12:15:14;5.57;;;1.17;;
75628;SDS011;64213;46.452;16.994;2024-02-21T12:18:17;6.00;;;1.30;;
75628;SDS011;64213;46.452;16.994;2024-02-21T12:21:23;5.50;;;1.10;;
75628;SDS011;64213;46.452;16.994;2024-02-21T12:24:30;7.15;;;1.30;;
75628;SDS011;64213;46.452;16.994;2024-02-21T12:27:33;7.32;;;1.55;;
75628;SDS011;64213;46.452;16.994;2024-02-21T12:30:35;6.95;;;1.37;;
75628;SDS011;64213;46.452;16.994;2024-02-21T12:33:44;5.25;;;1.62;;
75628;SDS011;64213;46.452;16.994;2024-02-21T12:36:47;6.53;;;1.63;;
75628;SDS011;64213;46.452;16.994;2024-02-21T12:39:50;5.43;;;1.30;;
75628;SDS011;64213;46.452;16.994;2024-02-21T12:42:52;4.72;;;1.17;;
75628;SDS011;64213;46.452;16.994;2024-02-21T12:45:55;7.32;;;1.67;;
75628;SDS011;64213;46.452;16.994;2024-02-21T12:48:58;6.15;;;1.50;;
75628;SDS011;64213;46.452;16.994;2024-02-21T12:52:00;6.43;;;1.50;;
75628;SDS011;64213;46.452;16.994;2024-02-21T12:55:03;7.07;;;1.73;;
75628;SDS011;64213;46.452;16.994;2024-02-21T12:58:05;6.50;;;1.60;;
75628;SDS011;64213;46.452;16.994;2024-02-21T13:01:09;6.70;;;1.10;;
75628;SDS011;64213;46.452;16.994;2024-02-21T13:04:11;7.50;;;1.90;;
75628;SDS011;64213;46.452;16.994;2024-02-21T13:07:14;6.20;;;1.60;;
75628;SDS011;64213;46.452;16.994;2024-02-21T13:10:17;8.98;;;2.28;;
75628;SDS011;64213;46.452;16.994;2024-02-21T13:13:21;7.45;;;1.67;;
75628;SDS011;64213;46.452;16.994;2024-02-21T13:16:23;7.30;;;1.87;;
75628;SDS011;64213;46.452;16.994;2024-02-21T13:19:28;8.68;;;2.20;;
75628;SDS011;64213;46.452;16.994;2024-02-21T13:22:31;6.30;;;1.73;;
75628;SDS011;64213;46.452;16.994;2024-02-21T13:25:34;6.82;;;2.10;;
75628;SDS011;64213;46.452;16.994;2024-02-21T13:28:36;6.50;;;1.87;;
75628;SDS011;64213;46.452;16.994;2024-02-21T13:31:39;8.63;;;2.40;;
75628;SDS011;64213;46.452;16.994;2024-02-21T13:34:42;7.15;;;1.85;;
75628;SDS011;64213;46.452;16.994;2024-02-21T13:37:44;8.57;;;2.50;;
75628;SDS011;64213;46.452;16.994;2024-02-21T13:40:47;7.70;;;2.20;;
75628;SDS011;64213;46.452;16.994;2024-02-21T13:43:49;10.38;;;2.30;;
75628;SDS011;64213;46.452;16.994;2024-02-21T13:46:52;6.87;;;2.10;;
75628;SDS011;64213;46.452;16.994;2024-02-21T13:49:55;9.18;;;2.30;;
75628;SDS011;64213;46.452;16.994;2024-02-21T13:52:58;13.63;;;2.40;;
75628;SDS011;64213;46.452;16.994;2024-02-21T13:56:00;7.93;;;2.40;;
75628;SDS011;64213;46.452;16.994;2024-02-21T13:59:03;7.50;;;1.83;;
75628;SDS011;64213;46.452;16.994;2024-02-21T14:02:07;8.27;;;2.40;;
75628;SDS011;64213;46.452;16.994;2024-02-21T14:05:10;7.78;;;2.17;;
75628;SDS011;64213;46.452;16.994;2024-02-21T14:08:13;7.47;;;1.73;;
75628;SDS011;64213;46.452;16.994;2024-02-21T14:11:16;7.35;;;1.95;;
75628;SDS011;64213;46.452;16.994;2024-02-21T14:14:20;7.35;;;2.20;;
75628;SDS011;64213;46.452;16.994;2024-02-21T14:17:22;6.70;;;2.20;;
75628;SDS011;64213;46.452;16.994;2024-02-21T14:20:26;8.50;;;2.30;;
75628;SDS011;64213;46.452;16.994;2024-02-21T14:23:29;7.30;;;1.57;;
75628;SDS011;64213;46.452;16.994;2024-02-21T14:26:31;7.57;;;1.80;;
75628;SDS011;64213;46.452;16.994;2024-02-21T14:29:34;6.65;;;1.90;;
75628;SDS011;64213;46.452;16.994;2024-02-21T14:32:37;6.82;;;2.00;;
75628;SDS011;64213;46.452;16.994;2024-02-21T14:35:40;7.90;;;2.03;;
75628;SDS011;64213;46.452;16.994;2024-02-21T14:38:44;6.97;;;1.70;;
75628;SDS011;64213;46.452;16.994;2024-02-21T14:41:46;5.72;;;1.70;;
75628;SDS011;64213;46.452;16.994;2024-02-21T14:44:49;6.87;;;1.70;;
75628;SDS011;64213;46.452;16.994;2024-02-21T14:47:51;6.20;;;1.80;;
75628;SDS011;64213;46.452;16.994;2024-02-21T14:50:54;7.45;;;2.10;;
75628;SDS011;64213;46.452;16.994;2024-02-21T14:53:56;7.27;;;1.73;;
75628;SDS011;64213;46.452;16.994;2024-02-21T14:56:58;7.28;;;1.80;;
75628;SDS011;64213;46.452;16.994;2024-02-21T15:00:01;9.60;;;1.87;;
75628;SDS011;64213;46.452;16.994;2024-02-21T15:03:05;8.20;;;1.70;;
75628;SDS011;64213;46.452;16.994;2024-02-21T15:06:08;6.78;;;1.70;;
75628;SDS011;64213;46.452;16.994;2024-02-21T15:09:11;7.20;;;1.83;;
75628;SDS011;64213;46.452;16.994;2024-02-21T15:12:16;8.35;;;2.10;;
75628;SDS011;64213;46.452;16.994;2024-02-21T15:15:19;8.20;;;2.00;;
75628;SDS011;64213;46.452;16.994;2024-02-21T15:18:21;6.78;;;1.40;;
75628;SDS011;64213;46.452;16.994;2024-02-21T15:21:24;8.27;;;1.70;;
75628;SDS011;64213;46.452;16.994;2024-02-21T15:24:26;6.37;;;1.40;;
75628;SDS011;64213;46.452;16.994;2024-02-21T15:27:29;7.60;;;1.50;;
75628;SDS011;64213;46.452;16.994;2024-02-21T15:30:31;8.10;;;1.95;;
75628;SDS011;64213;46.452;16.994;2024-02-21T15:33:34;6.57;;;1.50;;
75628;SDS011;64213;46.452;16.994;2024-02-21T15:36:40;6.50;;;1.87;;
75628;SDS011;64213;46.452;16.994;2024-02-21T15:39:42;6.57;;;1.40;;
75628;SDS011;64213;46.452;16.994;2024-02-21T15:42:47;7.03;;;1.65;;
75628;SDS011;64213;46.452;16.994;2024-02-21T15:45:50;7.75;;;1.67;;
75628;SDS011;64213;46.452;16.994;2024-02-21T15:48:52;7.93;;;1.55;;
75628;SDS011;64213;46.452;16.994;2024-02-21T15:51:56;7.00;;;1.50;;
75628;SDS011;64213;46.452;16.994;2024-02-21T15:58:57;6.72;;;1.60;;
75628;SDS011;64213;46.452;16.994;2024-02-21T16:02:00;8.93;;;1.65;;
75628;SDS011;64213;46.452;16.994;2024-02-21T16:05:02;7.15;;;1.83;;
75628;SDS011;64213;46.452;16.994;2024-02-21T16:08:11;8.40;;;2.07;;
75628;SDS011;64213;46.452;16.994;2024-02-21T16:11:14;10.57;;;2.13;;
75628;SDS011;64213;46.452;16.994;2024-02-21T16:14:21;10.05;;;2.53;;
75628;SDS011;64213;46.452;16.994;2024-02-21T16:17:32;10.82;;;2.97;;
75628;SDS011;64213;46.452;16.994;2024-02-21T16:20:35;11.25;;;3.40;;
75628;SDS011;64213;46.452;16.994;2024-02-21T16:23:38;10.77;;;3.63;;
75628;SDS011;64213;46.452;16.994;2024-02-21T16:26:41;13.67;;;3.23;;
75628;SDS011;64213;46.452;16.994;2024-02-21T16:29:57;9.60;;;2.53;;
75628;SDS011;64213;46.452;16.994;2024-02-21T16:33:21;9.95;;;1.85;;
75628;SDS011;64213;46.452;16.994;2024-02-21T16:36:44;10.10;;;2.33;;
75628;SDS011;64213;46.452;16.994;2024-02-21T16:40:02;13.47;;;2.47;;
75628;SDS011;64213;46.452;16.994;2024-02-21T16:43:08;9.77;;;2.50;;
75628;SDS011;64213;46.452;16.994;2024-02-21T16:46:11;12.05;;;2.28;;
75628;SDS011;64213;46.452;16.994;2024-02-21T16:49:14;9.48;;;2.20;;
75628;SDS011;64213;46.452;16.994;2024-02-21T16:52:20;8.82;;;1.87;;
75628;SDS011;64213;46.452;16.994;2024-02-21T16:55:22;9.07;;;2.00;;
75628;SDS011;64213;46.452;16.994;2024-02-21T16:58:25;9.37;;;2.40;;
75628;SDS011;64213;46.452;16.994;2024-02-21T17:01:27;7.70;;;1.90;;
75628;SDS011;64213;46.452;16.994;2024-02-21T17:04:30;8.77;;;2.55;;
75628;SDS011;64213;46.452;16.994;2024-02-21T17:07:33;8.60;;;2.65;;
75628;SDS011;64213;46.452;16.994;2024-02-21T17:10:36;6.97;;;1.93;;
75628;SDS011;64213;46.452;16.994;2024-02-21T17:13:39;10.10;;;2.43;;
75628;SDS011;64213;46.452;16.994;2024-02-21T17:16:41;8.63;;;2.53;;
75628;SDS011;64213;46.452;16.994;2024-02-21T17:19:44;5.57;;;1.33;;
75628;SDS011;64213;46.452;16.994;2024-02-21T17:22:50;6.05;;;1.50;;
75628;SDS011;64213;46.452;16.994;2024-02-21T17:25:52;10.73;;;2.33;;
75628;SDS011;64213;46.452;16.994;2024-02-21T17:28:55;10.43;;;2.87;;
75628;SDS011;64213;46.452;16.994;2024-02-21T17:31:58;6.35;;;1.37;;
75628;SDS011;64213;46.452;16.994;2024-02-21T17:35:04;10.27;;;2.17;;
75628;SDS011;64213;46.452;16.994;2024-02-21T17:38:07;9.98;;;3.92;;
75628;SDS011;64213;46.452;16.994;2024-02-21T17:41:12;9.07;;;2.07;;
75628;SDS011;64213;46.452;16.994;2024-02-21T17:44:17;9.20;;;2.30;;
75628;SDS011;64213;46.452;16.994;2024-02-21T17:47:19;7.30;;;1.70;;
75628;SDS011;64213;46.452;16.994;2024-02-21T17:50:22;10.02;;;2.00;;
75628;SDS011;64213;46.452;16.994;2024-02-21T17:53:25;8.70;;;1.45;;
75628;SDS011;64213;46.452;16.994;2024-02-21T17:56:28;6.53;;;1.27;;
75628;SDS011;64213;46.452;16.994;2024-02-21T17:59:31;13.93;;;3.97;;
75628;SDS011;64213;46.452;16.994;2024-02-21T18:02:35;7.65;;;1.73;;
75628;SDS011;64213;46.452;16.994;2024-02-21T18:05:38;7.78;;;1.70;;
75628;SDS011;64213;46.452;16.994;2024-02-21T18:08:41;6.50;;;1.50;;
75628;SDS011;64213;46.452;16.994;2024-02-21T18:11:45;6.97;;;1.60;;
75628;SDS011;64213;46.452;16.994;2024-02-21T18:14:52;7.07;;;1.47;;
75628;SDS011;64213;46.452;16.994;2024-02-21T18:17:54;7.35;;;1.70;;
75628;SDS011;64213;46.452;16.994;2024-02-21T18:21:00;7.62;;;1.85;;
75628;SDS011;64213;46.452;16.994;2024-02-21T18:24:04;8.73;;;2.35;;